Sainte-Dorothee, Canada
Current Conditions -  °F | °C
As of 2:00 AM on Friday 31 Oct 2014 (Local Time) from CYUL Reporting Station
Broken Clouds Broken Clouds  
Wind Chill: 34°   Ceiling: 24000
Heat Index: 37°   Visibility: 15mi
Dew Point: 28°   Wind: 5mph
Humidity: 70%   Direction: 280°W
Pressure: 30.02"   Gusts: NA
Location:  45.53°N, 73.82°W
Report Text: CYUL 310600Z 28004KT 15SM FEW015 FEW045 BKN240 03/M02 A3002 RMK SF1SC1CI4 SF TR SLP167
Loading
Personal Weather Stations






























Interactive Weather Map
Tropical Storm Tracking
New forecast layout! Learn more

10-Day Weather Forecast

Advertisements
Track Severe Weather on mobile